Time;durP1;ratioP1;P1;durP2;ratioP2;P2;SDS_P1;SDS_P2;PMS_P1;PMS_P2;Temp;Humidity;BMP_temperature;BMP_pressure;BME280_temperature;BME280_humidity;BME280_pressure;Samples;Min_cycle;Max_cycle;Signal;HPM_P1;HPM_P2
2023/10/10 00:02:04;;;;;;;12.20;11.70;;;21.70;99.90;;;;;;5054139;28;20440;-68
2023/10/10 00:04:33;;;;;;;11.20;10.50;;;21.70;99.90;;;;;;5053967;28;20484;-68
2023/10/10 00:07:06;;;;;;;11.33;10.80;;;21.70;99.90;;;;;;5054237;28;20506;-68
2023/10/10 00:09:33;;;;;;;12.10;11.60;;;21.80;99.90;;;;;;5054145;28;20861;-68
2023/10/10 00:12:00;;;;;;;11.97;11.47;;;21.70;99.90;;;;;;5053979;28;20543;-68
2023/10/10 00:14:29;;;;;;;13.40;12.80;;;21.70;99.90;;;;;;5053675;28;20510;-68
2023/10/10 00:16:59;;;;;;;11.37;10.87;;;21.70;99.90;;;;;;5053934;28;20818;-68
2023/10/10 00:19:29;;;;;;;12.20;11.30;;;21.70;99.90;;;;;;5053907;28;20456;-68
2023/10/10 00:21:57;;;;;;;12.70;12.20;;;21.70;99.90;;;;;;5053811;28;20440;-68
2023/10/10 00:24:30;;;;;;;13.77;13.07;;;21.70;99.90;;;;;;5053553;28;20920;-68
2023/10/10 00:26:58;;;;;;;11.30;10.80;;;21.70;99.90;;;;;;5053858;28;20893;-68
2023/10/10 00:29:26;;;;;;;11.57;11.07;;;21.70;99.90;;;;;;5053711;28;20440;-68
2023/10/10 00:32:05;;;;;;;12.50;11.90;;;21.60;99.90;;;;;;5053623;28;20527;-68
2023/10/10 00:34:37;;;;;;;11.40;10.80;;;21.60;99.90;;;;;;5053634;28;20543;-67
2023/10/10 00:37:07;;;;;;;11.63;11.13;;;21.60;99.90;;;;;;5053643;28;20460;-68
2023/10/10 00:39:36;;;;;;;11.33;10.83;;;21.60;99.90;;;;;;5053556;28;20444;-68
2023/10/10 00:42:06;;;;;;;12.27;11.67;;;21.60;99.90;;;;;;5053270;28;20482;-68
2023/10/10 00:44:37;;;;;;;12.10;11.47;;;21.60;99.90;;;;;;5053261;28;20480;-68
2023/10/10 00:47:12;;;;;;;11.90;11.40;;;21.60;99.90;;;;;;5053422;28;20830;-68
2023/10/10 00:49:45;;;;;;;10.80;10.40;;;21.60;99.90;;;;;;5053406;28;20454;-68
2023/10/10 00:52:16;;;;;;;11.10;10.70;;;21.60;99.90;;;;;;5053329;28;20931;-68
2023/10/10 00:54:45;;;;;;;12.30;11.80;;;21.60;99.90;;;;;;5052960;28;20450;-68
2023/10/10 00:57:15;;;;;;;12.27;11.73;;;21.60;99.90;;;;;;5053182;28;20464;-68
2023/10/10 00:59:47;;;;;;;11.73;11.10;;;21.60;99.90;;;;;;5053169;28;21065;-68
2023/10/10 01:02:20;;;;;;;13.00;12.50;;;21.60;99.90;;;;;;5053068;28;20468;-68
2023/10/10 01:04:55;;;;;;;12.10;11.50;;;21.60;99.90;;;;;;5052706;28;20979;-67
2023/10/10 01:07:23;;;;;;;11.80;11.30;;;21.60;99.90;;;;;;5052700;28;20468;-67
2023/10/10 01:09:55;;;;;;;11.80;11.10;;;21.60;99.90;;;;;;5052875;28;20494;-67
2023/10/10 01:12:24;;;;;;;12.00;11.40;;;21.50;99.90;;;;;;5052556;28;20444;-67
2023/10/10 01:14:55;;;;;;;11.70;11.20;;;21.50;99.90;;;;;;5058083;28;20436;-67
2023/10/10 01:17:28;;;;;;;11.27;10.87;;;21.50;99.90;;;;;;5072592;28;20456;-67
2023/10/10 01:19:58;;;;;;;12.43;11.80;;;21.50;99.90;;;;;;5072067;28;20938;-67
2023/10/10 01:22:38;;;;;;;13.00;12.50;;;21.50;99.90;;;;;;5072690;28;20935;-68
2023/10/10 01:25:30;;;;;;;12.73;11.97;;;21.50;99.90;;;;;;5072155;28;20471;-68
2023/10/10 01:28:01;;;;;;;10.97;10.47;;;21.50;99.90;;;;;;5072506;28;20450;-68
2023/10/10 01:33:14;;;;;;;12.50;12.00;;;21.50;99.90;;;;;;5065644;28;20998;-67
2023/10/10 01:35:42;;;;;;;11.70;11.30;;;21.50;99.90;;;;;;5052298;28;20531;-67
2023/10/10 01:38:38;;;;;;;12.20;11.70;;;21.50;99.90;;;;;;5052254;28;20440;-67
2023/10/10 01:41:15;;;;;;;11.83;11.43;;;21.50;99.90;;;;;;5052094;28;20432;-67
2023/10/10 01:43:45;;;;;;;12.40;11.80;;;21.50;99.90;;;;;;5051984;28;20443;-67
2023/10/10 01:46:19;;;;;;;12.40;11.90;;;21.50;99.90;;;;;;5052293;28;20468;-67
2023/10/10 01:48:46;;;;;;;11.90;11.40;;;21.50;99.90;;;;;;5052122;28;20517;-67
2023/10/10 01:51:15;;;;;;;11.53;11.13;;;21.50;99.90;;;;;;5051487;28;20472;-67
2023/10/10 01:53:43;;;;;;;12.43;11.93;;;21.50;99.90;;;;;;5051763;28;20440;-67
2023/10/10 01:56:11;;;;;;;11.57;11.17;;;21.50;99.90;;;;;;5052914;28;20492;-67
2023/10/10 01:58:40;;;;;;;12.07;11.57;;;21.50;99.90;;;;;;5051827;28;20479;-67
2023/10/10 02:01:13;;;;;;;11.90;11.50;;;21.50;99.90;;;;;;5065352;28;20436;-67
2023/10/10 02:03:40;;;;;;;12.13;11.53;;;21.50;99.90;;;;;;5071620;28;20947;-67
2023/10/10 02:06:13;;;;;;;11.73;11.33;;;21.50;99.90;;;;;;5071811;28;20517;-67
2023/10/10 02:08:40;;;;;;;12.73;12.17;;;21.50;99.90;;;;;;5071757;28;20439;-67
2023/10/10 02:11:12;;;;;;;11.13;10.70;;;21.50;99.90;;;;;;5057617;28;20448;-67
2023/10/10 02:13:39;;;;;;;12.67;11.90;;;21.50;99.90;;;;;;5051637;28;20454;-67
2023/10/10 02:16:06;;;;;;;11.80;11.30;;;21.50;99.90;;;;;;5051743;28;20531;-67
2023/10/10 02:18:39;;;;;;;11.33;10.93;;;21.40;99.90;;;;;;5051603;28;20823;-67
2023/10/10 02:21:09;;;;;;;11.53;11.03;;;21.40;99.90;;;;;;5064540;28;20524;-67
2023/10/10 02:23:36;;;;;;;11.70;11.10;;;21.40;99.90;;;;;;5071467;28;20439;-67
2023/10/10 02:26:23;;;;;;;11.40;10.90;;;21.40;99.90;;;;;;5071475;28;20854;-67
2023/10/10 02:29:16;;;;;;;11.20;10.70;;;21.50;99.90;;;;;;5071686;28;20451;-67
2023/10/10 02:31:41;;;;;;;11.57;10.87;;;21.40;99.90;;;;;;5070846;28;20439;-67
2023/10/10 02:34:10;;;;;;;11.43;11.03;;;21.40;99.90;;;;;;5071657;28;20536;-66
2023/10/10 02:36:40;;;;;;;11.87;11.37;;;21.40;99.90;;;;;;5071442;28;20467;-66
2023/10/10 02:39:27;;;;;;;11.87;11.37;;;21.40;99.90;;;;;;5071356;28;20465;-67
2023/10/10 02:41:59;;;;;;;11.07;10.67;;;21.40;99.90;;;;;;5070819;28;20567;-67
2023/10/10 02:44:38;;;;;;;11.27;10.83;;;21.40;99.90;;;;;;5055629;28;20468;-67
2023/10/10 02:47:06;;;;;;;11.80;11.20;;;21.40;99.90;;;;;;5051644;28;20466;-68
2023/10/10 02:49:37;;;;;;;11.50;11.00;;;21.40;99.90;;;;;;5051612;28;20479;-68
2023/10/10 02:52:06;;;;;;;11.60;11.10;;;21.40;99.90;;;;;;5051510;28;20440;-68
2023/10/10 02:54:34;;;;;;;11.37;10.83;;;21.40;99.90;;;;;;5051394;28;20436;-68
2023/10/10 02:57:26;;;;;;;11.77;11.23;;;21.40;99.90;;;;;;5051477;28;20460;-67
2023/10/10 03:00:15;;;;;;;12.37;11.87;;;21.40;99.90;;;;;;5051442;28;20531;-68
2023/10/10 03:02:49;;;;;;;11.70;11.00;;;21.40;99.90;;;;;;5052800;28;20546;-68
2023/10/10 03:05:17;;;;;;;11.60;10.70;;;21.30;99.90;;;;;;5054987;28;20479;-67
2023/10/10 03:07:51;;;;;;;11.13;10.63;;;21.30;99.90;;;;;;5054897;28;20443;-68
2023/10/10 03:10:37;;;;;;;11.47;10.97;;;21.30;99.90;;;;;;5055014;28;20485;-67
2023/10/10 03:13:27;;;;;;;12.00;11.40;;;21.40;99.90;;;;;;5054739;28;20440;-67
2023/10/10 03:15:56;;;;;;;12.00;11.50;;;21.30;99.90;;;;;;5054833;28;20459;-67
2023/10/10 03:18:30;;;;;;;11.03;10.50;;;21.30;99.90;;;;;;5054789;28;20448;-68
2023/10/10 03:21:24;;;;;;;11.50;11.10;;;21.30;99.90;;;;;;5064544;28;20455;-68
2023/10/10 03:23:54;;;;;;;11.10;10.70;;;21.30;99.90;;;;;;5074389;28;20446;-68
2023/10/10 03:26:35;;;;;;;11.20;10.77;;;21.30;99.90;;;;;;5074454;28;20487;-67
2023/10/10 03:29:10;;;;;;;11.40;10.80;;;21.30;99.90;;;;;;5073560;28;20810;-68
2023/10/10 03:31:42;;;;;;;11.00;10.60;;;21.30;99.90;;;;;;5074348;28;20503;-67
2023/10/10 03:34:20;;;;;;;11.67;11.17;;;21.30;99.90;;;;;;5074438;28;20447;-67
2023/10/10 03:37:27;;;;;;;12.37;11.70;;;21.30;99.90;;;;;;5074313;28;20986;-67
2023/10/10 03:39:49;;;;;;;11.90;11.33;;;21.30;99.90;;;;;;5073746;28;20446;-67
2023/10/10 05:24:00;;;;;;;15.23;13.70;;;21.30;99.90;;;;;;5072565;28;20515;-66
2023/10/10 05:26:30;;;;;;;16.50;15.10;;;21.30;99.90;;;;;;5071512;28;20506;-66
2023/10/10 05:28:59;;;;;;;15.10;13.97;;;21.30;99.90;;;;;;5072167;28;20543;-66
2023/10/10 05:31:30;;;;;;;18.87;17.13;;;21.40;99.90;;;;;;5072197;28;20443;-66
2023/10/10 05:33:57;;;;;;;17.87;13.63;;;21.40;99.90;;;;;;5071995;28;20439;-66
2023/10/10 05:36:24;;;;;;;15.40;14.00;;;21.40;99.90;;;;;;5072273;28;20451;-66
2023/10/10 05:38:51;;;;;;;15.67;14.43;;;21.30;99.90;;;;;;5071960;28;20447;-66
2023/10/10 05:41:19;;;;;;;15.80;14.27;;;21.30;99.90;;;;;;5072013;28;20864;-66
2023/10/10 05:43:49;;;;;;;19.00;14.20;;;21.30;99.90;;;;;;5071766;28;20546;-66
2023/10/10 05:46:16;;;;;;;15.17;14.17;;;21.30;99.90;;;;;;5071725;28;20570;-66
2023/10/10 05:48:42;;;;;;;16.30;14.90;;;21.30;99.90;;;;;;5071835;28;20439;-66
2023/10/10 05:51:10;;;;;;;15.57;14.37;;;21.30;99.90;;;;;;5071853;28;20844;-67
2023/10/10 05:53:37;;;;;;;15.63;14.23;;;21.30;99.90;;;;;;5071832;28;20493;-66
2023/10/10 05:56:13;;;;;;;14.90;13.53;;;21.30;99.90;;;;;;5071619;28;20857;-66
2023/10/10 05:58:44;;;;;;;17.97;12.50;;;21.30;99.90;;;;;;5072052;28;20447;-66
2023/10/10 06:01:13;;;;;;;14.20;12.73;;;21.40;99.90;;;;;;5071679;28;20934;-66
2023/10/10 06:03:42;;;;;;;17.80;16.10;;;21.30;99.90;;;;;;5071542;28;20505;-66
2023/10/10 06:06:12;;;;;;;15.87;14.30;;;21.30;99.90;;;;;;5071750;28;20489;-66
2023/10/10 06:08:41;;;;;;;15.80;14.33;;;21.30;99.90;;;;;;5071949;28;20432;-66
2023/10/10 06:11:09;;;;;;;15.93;14.80;;;21.30;99.90;;;;;;5071528;28;20447;-66
2023/10/10 06:13:39;;;;;;;14.87;13.90;;;21.30;99.90;;;;;;5071440;28;20467;-66
2023/10/10 06:16:09;;;;;;;15.30;14.20;;;21.30;99.90;;;;;;5071539;28;20468;-66
2023/10/10 06:18:41;;;;;;;14.57;13.60;;;21.30;99.90;;;;;;5071529;28;20443;-66
2023/10/10 06:21:09;;;;;;;15.13;14.10;;;21.30;99.90;;;;;;5071763;28;20821;-66
2023/10/10 06:23:36;;;;;;;14.37;13.47;;;21.30;99.90;;;;;;5071324;28;20506;-66
2023/10/10 06:26:06;;;;;;;16.13;14.80;;;21.30;99.90;;;;;;5071282;28;20962;-66
2023/10/10 06:28:42;;;;;;;16.60;15.60;;;21.30;99.90;;;;;;5071439;28;20447;-65
2023/10/10 06:31:11;;;;;;;14.93;14.03;;;21.30;99.90;;;;;;5071451;28;20439;-66
2023/10/10 06:33:41;;;;;;;15.20;14.40;;;21.30;99.90;;;;;;5071244;28;20466;-66
2023/10/10 06:39:18;;;;;;;15.90;14.50;;;21.30;99.90;;;;;;5075503;28;20430;-66
2023/10/10 06:41:54;;;;;;;15.17;14.17;;;21.30;99.90;;;;;;5075739;28;20443;-66
2023/10/10 06:44:33;;;;;;;16.10;14.93;;;21.30;99.90;;;;;;5075211;28;20934;-66
2023/10/10 06:47:00;;;;;;;15.87;14.97;;;21.30;99.90;;;;;;5075230;28;20490;-66
2023/10/10 06:49:43;;;;;;;14.53;13.67;;;21.30;99.90;;;;;;5075377;28;20443;-65
2023/10/10 06:52:15;;;;;;;14.97;14.17;;;21.30;99.90;;;;;;5075216;28;20457;-66
2023/10/10 06:54:44;;;;;;;15.10;14.20;;;21.30;99.90;;;;;;5075090;28;20942;-66
2023/10/10 06:57:17;;;;;;;15.33;14.47;;;21.30;99.90;;;;;;5075080;28;20568;-66
2023/10/10 06:59:44;;;;;;;16.77;15.87;;;21.30;99.90;;;;;;5075073;28;20818;-66
2023/10/10 07:02:20;;;;;;;15.90;14.97;;;21.30;99.90;;;;;;5074952;28;20467;-66
2023/10/10 07:04:53;;;;;;;16.23;15.03;;;21.30;99.90;;;;;;5074739;28;20934;-66
2023/10/10 07:07:21;;;;;;;14.50;13.90;;;21.30;99.90;;;;;;5074855;28;20491;-66
2023/10/10 07:09:57;;;;;;;14.60;13.90;;;21.30;99.90;;;;;;5075014;28;20993;-66
2023/10/10 07:12:28;;;;;;;15.13;14.23;;;21.30;99.90;;;;;;5074700;28;20445;-66
2023/10/10 07:14:56;;;;;;;16.03;14.87;;;21.30;99.90;;;;;;5074630;28;20453;-66
2023/10/10 07:17:27;;;;;;;15.53;14.63;;;21.30;99.90;;;;;;5074652;28;20490;-66
2023/10/10 07:22:41;;;;;;;16.10;14.80;;;21.30;99.90;;;;;;5074924;28;21004;-66
2023/10/10 07:25:17;;;;;;;15.20;14.40;;;21.30;99.90;;;;;;5074277;28;20443;-66
2023/10/10 07:27:44;;;;;;;14.73;14.00;;;21.30;99.90;;;;;;5074593;28;20526;-66
2023/10/10 07:30:16;;;;;;;14.83;14.13;;;21.30;99.90;;;;;;5074378;28;20486;-66
2023/10/10 07:32:44;;;;;;;14.70;14.03;;;21.30;99.90;;;;;;5074373;28;20451;-66
2023/10/10 07:35:15;;;;;;;15.47;14.20;;;21.30;99.90;;;;;;5074115;28;20479;-66
2023/10/10 07:37:43;;;;;;;14.07;13.47;;;21.30;99.90;;;;;;5074459;28;20442;-66
2023/10/10 07:40:20;;;;;;;15.83;14.93;;;21.30;99.90;;;;;;5074349;28;20443;-66
2023/10/10 07:42:50;;;;;;;15.00;14.20;;;21.30;99.90;;;;;;5074205;28;20460;-66
2023/10/10 07:45:26;;;;;;;15.13;14.57;;;21.30;99.90;;;;;;5074187;28;20771;-66
2023/10/10 07:51:05;;;;;;;15.00;13.90;;;21.30;99.90;;;;;;5012043;28;20470;-66
2023/10/10 07:53:42;;;;;;;16.43;15.60;;;21.30;99.90;;;;;;5065326;28;20816;-66
2023/10/10 07:56:08;;;;;;;14.70;13.90;;;21.30;99.90;;;;;;5074056;28;20454;-66
2023/10/10 07:58:44;;;;;;;14.60;14.00;;;21.30;99.90;;;;;;5073899;28;20443;-66
2023/10/10 08:01:16;;;;;;;15.73;14.93;;;21.30;99.90;;;;;;5073910;28;20435;-66
2023/10/10 08:03:45;;;;;;;14.17;13.27;;;21.30;99.90;;;;;;5073674;28;20970;-66
2023/10/10 08:06:16;;;;;;;14.50;13.80;;;21.30;99.90;;;;;;5073676;28;20483;-66
2023/10/10 08:08:44;;;;;;;16.50;15.60;;;21.30;99.90;;;;;;5073782;28;20446;-66
2023/10/10 08:11:13;;;;;;;16.07;15.10;;;21.30;99.90;;;;;;5073801;28;20478;-66
2023/10/10 08:13:48;;;;;;;14.87;14.17;;;21.30;99.90;;;;;;5073515;28;20483;-66
2023/10/10 08:16:20;;;;;;;14.20;13.60;;;21.30;99.90;;;;;;5073648;28;20459;-66
2023/10/10 08:18:53;;;;;;;15.03;14.20;;;21.30;99.90;;;;;;5073657;28;20447;-66
2023/10/10 08:21:23;;;;;;;15.23;14.53;;;21.30;99.90;;;;;;5073444;28;20459;-66
2023/10/10 08:23:56;;;;;;;13.10;12.60;;;21.30;99.90;;;;;;5073248;28;20478;-66
2023/10/10 08:26:29;;;;;;;15.00;14.20;;;21.30;99.90;;;;;;5073289;28;20518;-66
2023/10/10 08:28:56;;;;;;;14.20;13.47;;;21.30;99.90;;;;;;5073444;28;20809;-66
2023/10/10 08:31:23;;;;;;;14.50;13.90;;;21.30;99.90;;;;;;5073296;28;20497;-66
2023/10/10 08:33:50;;;;;;;15.80;14.90;;;21.30;99.90;;;;;;5073154;28;20469;-66
2023/10/10 08:36:26;;;;;;;15.50;14.70;;;21.30;99.90;;;;;;5073321;28;20955;-66
2023/10/10 08:38:56;;;;;;;14.30;13.70;;;21.30;99.90;;;;;;5073312;28;20886;-66
2023/10/10 08:41:26;;;;;;;15.50;14.80;;;21.30;99.90;;;;;;5073129;28;20536;-66
2023/10/10 08:43:57;;;;;;;15.30;14.50;;;21.30;99.90;;;;;;5072969;28;20478;-66
2023/10/10 08:46:29;;;;;;;14.97;14.27;;;21.30;99.90;;;;;;5072925;28;20486;-66
2023/10/10 08:48:57;;;;;;;14.47;13.87;;;21.30;99.90;;;;;;5073194;28;20508;-66
2023/10/10 08:51:32;;;;;;;14.10;13.50;;;21.30;99.90;;;;;;5072958;28;20447;-66
2023/10/10 08:54:00;;;;;;;14.27;13.67;;;21.30;99.90;;;;;;5072813;28;20869;-66
2023/10/10 08:56:27;;;;;;;14.47;13.87;;;21.40;99.90;;;;;;5072787;28;20465;-66
2023/10/10 08:58:54;;;;;;;14.17;13.60;;;21.30;99.90;;;;;;5072763;28;20841;-66
2023/10/10 09:01:22;;;;;;;14.50;13.77;;;21.30;99.90;;;;;;5071638;28;20471;-66
2023/10/10 09:03:48;;;;;;;15.37;14.57;;;21.40;99.90;;;;;;5072626;28;20450;-66
2023/10/10 09:06:19;;;;;;;15.73;15.07;;;21.30;99.90;;;;;;5072524;28;20524;-66
2023/10/10 09:08:49;;;;;;;16.33;15.53;;;21.30;99.90;;;;;;5072483;28;20443;-66
2023/10/10 09:11:19;;;;;;;15.60;15.00;;;21.30;99.90;;;;;;5072603;28;20453;-66
2023/10/10 09:13:51;;;;;;;14.30;13.70;;;21.30;99.90;;;;;;5072428;28;20451;-66
2023/10/10 09:16:21;;;;;;;15.07;14.40;;;21.40;99.90;;;;;;5072561;28;20482;-66
2023/10/10 09:19:08;;;;;;;13.90;13.30;;;21.40;99.90;;;;;;5072487;28;20810;-67
2023/10/10 09:21:50;;;;;;;13.47;12.83;;;21.40;99.90;;;;;;5072375;28;20431;-66
2023/10/10 09:24:28;;;;;;;15.40;14.70;;;21.40;99.90;;;;;;5072312;28;20493;-66
2023/10/10 09:26:58;;;;;;;14.40;13.80;;;21.40;99.90;;;;;;5072046;28;20499;-66
2023/10/10 09:29:32;;;;;;;15.43;14.83;;;21.40;99.90;;;;;;5072518;28;20435;-66
2023/10/10 09:32:00;;;;;;;14.63;14.03;;;21.40;99.90;;;;;;5072113;28;20450;-66
2023/10/10 09:34:35;;;;;;;14.37;13.77;;;21.40;99.90;;;;;;5072033;28;20951;-66
2023/10/10 09:37:07;;;;;;;15.37;14.57;;;21.40;99.90;;;;;;5072044;28;20517;-66
2023/10/10 09:39:37;;;;;;;13.77;13.27;;;21.40;99.90;;;;;;5072102;28;20443;-66
2023/10/10 09:42:23;;;;;;;14.10;13.50;;;21.40;99.90;;;;;;5071929;28;20535;-66
2023/10/10 09:44:53;;;;;;;15.77;15.07;;;21.40;99.90;;;;;;5071809;28;20447;-66
2023/10/10 09:52:50;;;;;;;14.70;14.00;;;21.40;99.90;;;;;;5071646;28;20526;-66
2023/10/10 09:55:39;;;;;;;14.73;14.23;;;21.40;99.90;;;;;;5071745;28;20479;-66
2023/10/10 09:58:24;;;;;;;14.53;13.83;;;21.40;99.90;;;;;;5071759;28;20450;-66
2023/10/10 10:00:52;;;;;;;15.50;14.73;;;21.40;99.90;;;;;;5071749;28;20524;-66
2023/10/10 10:03:36;;;;;;;15.30;14.70;;;21.40;99.90;;;;;;5071665;28;20439;-66
2023/10/10 10:06:34;;;;;;;15.60;14.90;;;21.40;99.90;;;;;;5071521;28;20473;-66
2023/10/10 10:09:32;;;;;;;14.37;13.77;;;21.40;99.90;;;;;;5071661;28;20500;-66
2023/10/10 10:12:19;;;;;;;15.00;14.20;;;21.40;99.90;;;;;;5046046;28;20445;-66
2023/10/10 10:14:55;;;;;;;15.70;15.00;;;21.40;99.90;;;;;;5071384;28;20494;-66
2023/10/10 10:17:45;;;;;;;14.47;13.97;;;21.40;99.90;;;;;;5071454;28;20486;-66
2023/10/10 10:20:20;;;;;;;15.03;14.20;;;21.40;99.90;;;;;;5071412;28;20450;-66
2023/10/10 10:22:53;;;;;;;15.43;14.83;;;21.40;99.90;;;;;;5071490;28;20509;-66
2023/10/10 10:25:25;;;;;;;15.30;14.60;;;21.40;99.90;;;;;;5071359;28;22116;-66
2023/10/10 10:28:10;;;;;;;15.13;14.53;;;21.40;99.90;;;;;;5071449;28;20491;-66
2023/10/10 10:30:51;;;;;;;14.30;13.80;;;21.40;99.90;;;;;;5071473;28;20503;-66
2023/10/10 10:33:22;;;;;;;13.70;13.20;;;21.40;99.90;;;;;;5097498;22;20484;-72
2023/10/10 10:36:14;;;;;;;13.83;13.33;;;21.50;99.90;;;;;;5031013;28;20453;-72
2023/10/10 10:39:17;;;;;;;14.70;14.00;;;21.50;99.90;;;;;;5031035;28;20473;-72
2023/10/10 10:41:42;;;;;;;13.97;13.47;;;21.40;99.90;;;;;;5030908;28;20445;-71
2023/10/10 10:44:12;;;;;;;14.73;14.23;;;21.40;99.90;;;;;;5023624;28;20472;-72
2023/10/10 10:46:47;;;;;;;15.50;14.80;;;21.40;99.90;;;;;;5030988;28;20530;-72
2023/10/10 10:49:15;;;;;;;15.13;14.40;;;21.40;99.90;;;;;;5031097;28;20449;-72
2023/10/10 10:51:48;;;;;;;14.70;14.10;;;21.50;99.90;;;;;;5030894;28;20451;-72
2023/10/10 10:54:35;;;;;;;15.00;14.30;;;21.40;99.90;;;;;;5030740;28;20987;-71
2023/10/10 10:57:02;;;;;;;14.70;14.00;;;21.40;99.90;;;;;;5030880;28;20814;-68
2023/10/10 10:59:38;;;;;;;14.67;14.07;;;21.50;99.90;;;;;;5031648;28;20853;-68
2023/10/10 11:02:15;;;;;;;14.83;14.13;;;21.50;99.90;;;;;;5023890;28;20515;-69
2023/10/10 11:04:50;;;;;;;15.77;15.17;;;21.50;99.90;;;;;;5031031;28;20890;-69
2023/10/10 11:07:27;;;;;;;15.50;14.70;;;21.50;99.90;;;;;;5031496;28;20473;-69
2023/10/10 11:10:08;;;;;;;14.50;13.90;;;21.50;99.90;;;;;;5031574;28;20871;-70
2023/10/10 11:12:45;;;;;;;15.30;14.50;;;21.50;99.90;;;;;;5031300;28;20524;-70
2023/10/10 11:15:16;;;;;;;13.93;13.43;;;21.60;99.90;;;;;;5024013;28;20453;-70
2023/10/10 11:18:07;;;;;;;14.80;14.20;;;21.60;99.90;;;;;;5031131;28;20536;-71
2023/10/10 11:23:41;;;;;;;14.33;13.70;;;21.60;99.90;;;;;;5088801;27;20574;-69
2023/10/10 11:26:14;;;;;;;15.53;14.83;;;21.70;99.90;;;;;;5069445;28;20447;-69
2023/10/10 11:28:59;;;;;;;14.03;13.43;;;21.70;99.90;;;;;;5077181;28;20522;-71
2023/10/10 11:31:34;;;;;;;17.10;16.40;;;21.70;99.90;;;;;;5080816;28;20508;-69
2023/10/10 11:36:51;;;;;;;13.83;13.33;;;21.80;99.90;;;;;;5077623;28;20436;-71
2023/10/10 11:39:33;;;;;;;14.33;13.70;;;21.70;99.90;;;;;;5080713;28;20438;-70
2023/10/10 11:42:08;;;;;;;14.50;13.80;;;21.70;99.90;;;;;;5077489;28;20475;-70
2023/10/10 11:44:41;;;;;;;15.70;15.10;;;21.70;99.90;;;;;;5076676;28;20459;-71
2023/10/10 11:47:23;;;;;;;14.70;14.20;;;21.70;99.90;;;;;;5068828;28;20435;-68
2023/10/10 11:50:13;;;;;;;15.77;15.17;;;21.70;99.90;;;;;;5060325;28;20538;-68
2023/10/10 11:52:55;;;;;;;15.17;14.57;;;21.80;99.90;;;;;;5079516;28;20439;-69
2023/10/10 11:55:29;;;;;;;15.80;14.87;;;21.80;99.90;;;;;;5059238;28;20452;-68
2023/10/10 11:58:07;;;;;;;14.63;14.03;;;21.80;99.90;;;;;;5078374;28;21004;-67
2023/10/10 12:00:42;;;;;;;14.70;14.20;;;21.80;99.90;;;;;;5079724;28;20929;-68
2023/10/10 12:03:18;;;;;;;13.90;13.20;;;21.80;99.90;;;;;;5050250;28;21030;-68
2023/10/10 12:05:49;;;;;;;14.90;14.40;;;21.80;99.90;;;;;;5075635;28;20863;-68
2023/10/10 12:08:22;;;;;;;14.33;13.83;;;21.80;99.90;;;;;;5079698;28;20541;-67
2023/10/10 12:11:06;;;;;;;14.30;13.60;;;21.80;99.90;;;;;;5078157;28;20814;-69
2023/10/10 12:13:35;;;;;;;14.20;13.60;;;21.80;99.90;;;;;;5076009;28;20463;-68
2023/10/10 12:16:07;;;;;;;15.13;14.50;;;21.80;99.90;;;;;;5078813;28;20845;-68
2023/10/10 12:18:35;;;;;;;13.40;12.90;;;21.80;99.90;;;;;;5079577;28;20814;-68
2023/10/10 12:21:03;;;;;;;14.80;14.20;;;21.80;99.90;;;;;;5076067;28;20476;-68
2023/10/10 12:23:31;;;;;;;15.17;14.37;;;21.80;99.90;;;;;;5075345;28;20511;-68
2023/10/10 12:26:00;;;;;;;14.00;13.50;;;21.80;99.90;;;;;;5078059;28;20462;-68
2023/10/10 12:28:27;;;;;;;14.13;13.57;;;21.80;99.90;;;;;;5079335;28;20500;-68
2023/10/10 12:30:56;;;;;;;14.70;13.87;;;21.80;99.90;;;;;;5077271;28;20478;-68
2023/10/10 12:33:24;;;;;;;14.10;13.50;;;21.80;99.90;;;;;;5070110;28;20502;-68
2023/10/10 12:35:51;;;;;;;14.73;14.23;;;21.90;99.90;;;;;;5063450;28;20479;-69
2023/10/10 12:38:21;;;;;;;13.13;12.73;;;21.90;99.90;;;;;;5065707;28;20474;-69
2023/10/10 12:40:49;;;;;;;14.97;14.27;;;21.90;99.90;;;;;;5064587;28;20443;-68
2023/10/10 12:43:17;;;;;;;13.93;13.33;;;21.90;99.90;;;;;;5061871;28;20533;-68
2023/10/10 12:45:45;;;;;;;14.10;13.40;;;21.90;99.90;;;;;;5062130;28;20483;-68
2023/10/10 12:48:20;;;;;;;14.23;13.63;;;21.90;99.90;;;;;;5065488;28;20526;-69
2023/10/10 12:50:47;;;;;;;14.47;13.97;;;21.90;99.90;;;;;;5064580;28;20443;-69
2023/10/10 12:53:16;;;;;;;13.27;12.87;;;21.90;99.90;;;;;;5061621;28;20491;-71
2023/10/10 12:55:49;;;;;;;13.20;12.60;;;21.90;99.90;;;;;;5061947;28;20476;-71
2023/10/10 12:58:20;;;;;;;13.63;13.13;;;21.90;99.90;;;;;;5054791;28;20478;-71
2023/10/10 13:00:53;;;;;;;13.00;12.50;;;22.00;99.90;;;;;;5062304;28;20510;-70
2023/10/10 13:03:23;;;;;;;13.60;13.00;;;21.90;99.90;;;;;;5065046;28;20873;-70
2023/10/10 13:05:52;;;;;;;14.50;14.00;;;21.90;99.90;;;;;;5064083;28;20447;-70
2023/10/10 13:08:22;;;;;;;14.27;13.63;;;21.90;99.90;;;;;;5061759;28;20487;-70
2023/10/10 13:10:54;;;;;;;13.40;13.00;;;21.90;99.90;;;;;;5062361;28;21015;-70
2023/10/10 13:13:31;;;;;;;13.33;12.83;;;21.90;99.90;;;;;;5064847;28;20467;-70
2023/10/10 13:16:22;;;;;;;14.50;14.00;;;22.00;99.90;;;;;;5062901;28;20448;-70
2023/10/10 13:18:49;;;;;;;14.30;13.90;;;22.00;99.90;;;;;;5062063;28;20452;-70
2023/10/10 13:21:19;;;;;;;13.50;13.07;;;22.00;99.90;;;;;;5064617;28;20635;-70
2023/10/10 13:23:46;;;;;;;13.60;13.10;;;22.00;99.90;;;;;;5064008;28;20479;-70
2023/10/10 13:26:13;;;;;;;14.60;14.10;;;22.00;99.90;;;;;;5061266;28;20472;-71
2023/10/10 13:28:44;;;;;;;14.30;13.80;;;22.00;99.90;;;;;;5061287;28;20494;-68
2023/10/10 13:31:12;;;;;;;14.23;13.73;;;22.00;99.90;;;;;;5053253;28;20448;-69
2023/10/10 13:33:39;;;;;;;13.73;13.33;;;22.10;99.90;;;;;;5060981;28;20491;-69
2023/10/10 13:36:11;;;;;;;15.60;14.93;;;22.10;99.90;;;;;;5064047;28;20434;-69
2023/10/10 13:38:38;;;;;;;14.70;14.13;;;22.10;99.90;;;;;;5064485;28;20444;-68
2023/10/10 13:41:08;;;;;;;13.50;12.90;;;22.10;99.90;;;;;;5061384;28;20472;-69
2023/10/10 13:43:36;;;;;;;13.57;13.17;;;22.10;99.90;;;;;;5060699;28;20529;-69
2023/10/10 13:46:05;;;;;;;14.33;13.73;;;22.20;99.90;;;;;;5062366;28;20506;-68
2023/10/10 13:48:36;;;;;;;14.83;14.33;;;22.20;99.90;;;;;;5064228;28;20486;-68
2023/10/10 13:51:04;;;;;;;13.13;12.63;;;22.20;99.90;;;;;;5061637;28;20914;-69
2023/10/10 13:53:31;;;;;;;14.43;13.93;;;22.20;99.90;;;;;;5060494;28;20471;-69
2023/10/10 13:56:01;;;;;;;14.87;14.37;;;22.20;99.90;;;;;;5062439;28;20532;-68
2023/10/10 13:58:28;;;;;;;14.60;14.10;;;22.20;99.90;;;;;;5064022;28;20443;-67
2023/10/10 14:01:10;;;;;;;14.87;14.37;;;22.30;99.90;;;;;;5062731;28;20455;-71
2023/10/10 14:03:45;;;;;;;14.73;13.80;;;22.30;99.90;;;;;;5060404;28;20487;-71
2023/10/10 14:06:12;;;;;;;15.03;14.43;;;22.30;99.90;;;;;;5052846;28;20448;-71
2023/10/10 14:08:43;;;;;;;14.13;13.40;;;22.30;99.90;;;;;;5060752;28;20455;-71
2023/10/10 14:11:12;;;;;;;15.00;14.20;;;22.30;99.90;;;;;;5065462;28;20902;-71
2023/10/10 14:13:39;;;;;;;14.70;14.10;;;22.30;99.90;;;;;;5064041;28;20554;-70
2023/10/10 14:16:06;;;;;;;14.27;13.77;;;22.30;99.90;;;;;;5062090;28;20441;-71
2023/10/10 14:18:42;;;;;;;14.27;13.77;;;22.30;99.90;;;;;;5061088;28;20510;-71
2023/10/10 14:21:11;;;;;;;15.37;14.77;;;22.30;99.90;;;;;;5063400;28;20964;-71
2023/10/10 14:23:39;;;;;;;15.10;14.50;;;22.30;99.90;;;;;;5063458;28;20522;-71
2023/10/10 14:26:18;;;;;;;16.17;15.57;;;22.30;99.90;;;;;;5060961;28;20557;-72
2023/10/10 14:28:50;;;;;;;14.90;14.40;;;22.30;99.90;;;;;;5060326;28;20452;-71
2023/10/10 14:31:18;;;;;;;14.70;14.20;;;22.30;99.90;;;;;;5052613;28;20436;-72
2023/10/10 14:33:45;;;;;;;14.43;13.73;;;22.40;99.90;;;;;;5059728;28;20492;-70
2023/10/10 14:36:14;;;;;;;14.80;14.20;;;22.40;99.90;;;;;;5051877;28;20858;-70
2023/10/10 14:38:44;;;;;;;13.90;13.40;;;22.40;99.90;;;;;;5060379;28;20528;-72
2023/10/10 14:41:12;;;;;;;14.73;14.13;;;22.40;99.90;;;;;;5063462;28;20431;-72
2023/10/10 14:43:39;;;;;;;15.07;14.50;;;22.40;99.90;;;;;;5063140;28;20514;-72
2023/10/10 14:46:09;;;;;;;14.90;14.30;;;22.40;99.90;;;;;;5061066;28;20524;-70
2023/10/10 14:48:35;;;;;;;14.90;14.30;;;22.40;99.90;;;;;;5059831;28;20441;-71
2023/10/10 14:51:05;;;;;;;14.43;13.93;;;22.40;99.90;;;;;;5058173;28;20500;-71
2023/10/10 14:53:34;;;;;;;15.23;14.63;;;22.50;99.90;;;;;;5052903;28;20475;-72
2023/10/10 14:56:05;;;;;;;14.60;14.10;;;22.50;99.90;;;;;;5061042;28;21169;-69
2023/10/10 14:58:33;;;;;;;14.10;13.60;;;22.50;99.90;;;;;;5059838;28;20454;-72
2023/10/10 15:01:00;;;;;;;14.03;13.53;;;22.50;99.90;;;;;;5061268;28;20448;-69